createdAt,value
2022-09-11T00:04:45.263Z,79.90
2022-09-11T00:09:48.295Z,80.10
2022-09-11T00:14:51.896Z,80.40
2022-09-11T00:19:54.215Z,80.70
2022-09-11T00:24:56.522Z,81.10
2022-09-11T00:30:00.160Z,81.50
2022-09-11T00:35:02.324Z,81.30
2022-09-11T00:40:05.356Z,81.20
2022-09-11T00:45:19.721Z,81.20
2022-09-11T00:50:25.372Z,81.70
2022-09-11T00:55:32.487Z,81.40
2022-09-11T01:00:36.705Z,81.50
2022-09-11T01:05:41.366Z,81.50
2022-09-11T01:10:59.213Z,81.40
2022-09-11T01:16:13.100Z,81.40
2022-09-11T01:21:41.887Z,81.50
2022-09-11T01:27:10.736Z,82.30
2022-09-11T01:32:21.681Z,82.20
2022-09-11T01:37:29.999Z,82.10
2022-09-11T01:42:35.142Z,82.20
2022-09-11T01:47:41.526Z,82.00
2022-09-11T01:52:48.532Z,82.20
2022-09-11T01:57:56.360Z,82.00
2022-09-11T02:03:04.255Z,82.00
2022-09-11T02:08:12.080Z,81.90
2022-09-11T02:13:18.866Z,81.80
2022-09-11T02:18:26.231Z,81.60
2022-09-11T02:23:28.474Z,81.80
2022-09-11T02:28:30.737Z,81.80
2022-09-11T02:33:36.397Z,82.00
2022-09-11T02:38:47.846Z,81.90
2022-09-11T02:43:58.935Z,82.10
2022-09-11T02:49:10.318Z,82.10
2022-09-11T02:54:20.314Z,82.20
2022-09-11T02:59:26.633Z,82.10
2022-09-11T03:04:30.879Z,82.00
2022-09-11T03:09:33.043Z,82.00
2022-09-11T03:14:35.226Z,81.90
2022-09-11T03:19:38.844Z,82.00
2022-09-11T03:24:41.118Z,82.10
2022-09-11T03:29:43.439Z,82.00
2022-09-11T03:34:47.269Z,82.00
2022-09-11T03:39:49.708Z,82.10
2022-09-11T03:44:51.856Z,82.00
2022-09-11T03:49:55.456Z,82.00
2022-09-11T03:54:57.634Z,82.10
2022-09-11T03:59:59.850Z,81.90
2022-09-11T04:05:03.616Z,81.90
2022-09-11T04:10:06.403Z,82.30
2022-09-11T04:15:09.272Z,82.50
2022-09-11T04:20:12.891Z,82.40
2022-09-11T04:25:15.354Z,82.40
2022-09-11T04:30:17.630Z,82.40
2022-09-11T04:35:21.300Z,82.50
2022-09-11T04:40:23.581Z,82.60
2022-09-11T04:45:25.841Z,82.60
2022-09-11T04:50:29.594Z,82.50
2022-09-11T04:55:31.770Z,82.60
2022-09-11T05:00:33.958Z,82.60
2022-09-11T05:05:37.587Z,82.70
2022-09-11T05:10:39.789Z,82.70
2022-09-11T05:15:41.918Z,82.80
2022-09-11T05:20:45.543Z,82.80
2022-09-11T05:25:47.679Z,82.70
2022-09-11T05:30:49.910Z,82.80
2022-09-11T05:35:55.143Z,83.30
2022-09-11T05:40:57.496Z,83.70
2022-09-11T05:46:00.244Z,83.80
2022-09-11T05:51:06.435Z,83.90
2022-09-11T05:56:11.756Z,84.30
2022-09-11T06:01:16.061Z,84.30
2022-09-11T06:06:22.148Z,84.50
2022-09-11T06:11:24.340Z,84.50
2022-09-11T06:16:26.753Z,84.30
2022-09-11T06:21:30.382Z,83.90
2022-09-11T06:26:32.653Z,83.30
2022-09-11T06:31:34.895Z,82.60
2022-09-11T06:36:38.885Z,82.20
2022-09-11T06:41:41.082Z,81.90
2022-09-11T06:46:43.242Z,82.20
2022-09-11T06:51:46.882Z,82.80
2022-09-11T06:56:49.125Z,82.60
2022-09-11T07:01:51.532Z,81.90
2022-09-11T07:06:55.503Z,81.50
2022-09-11T07:11:57.805Z,80.30
2022-09-11T07:16:59.997Z,79.90
2022-09-11T07:22:03.672Z,78.60
2022-09-11T07:27:06.011Z,76.60
2022-09-11T07:32:08.250Z,75.80
2022-09-11T07:37:11.899Z,75.50
2022-09-11T07:42:14.238Z,76.20
2022-09-11T07:47:16.474Z,78.30
2022-09-11T07:52:20.259Z,77.10
2022-09-11T07:57:22.429Z,73.70
2022-09-11T08:02:24.620Z,71.90
2022-09-11T08:07:28.336Z,71.70
2022-09-11T08:12:30.760Z,70.80
2022-09-11T08:17:33.106Z,71.20
2022-09-11T08:22:37.164Z,71.60
2022-09-11T08:27:39.604Z,69.50
2022-09-11T08:32:42.007Z,69.10
2022-09-11T08:37:46.143Z,67.50
2022-09-11T08:42:48.939Z,65.90
2022-09-11T08:47:59.600Z,64.30
2022-09-11T08:53:10.931Z,59.60
2022-09-11T08:58:25.972Z,59.00
2022-09-11T09:03:48.885Z,58.30
2022-09-11T09:09:02.317Z,57.20
2022-09-11T09:14:24.963Z,56.80
2022-09-11T09:19:35.194Z,58.30
2022-09-11T09:24:46.056Z,58.70
2022-09-11T09:29:52.882Z,59.70
2022-09-11T09:35:00.729Z,60.00
2022-09-11T09:40:08.553Z,57.50
2022-09-11T09:45:35.068Z,54.80
2022-09-11T09:51:00.800Z,53.70
2022-09-11T09:56:06.100Z,52.70
2022-09-11T10:01:47.318Z,51.50
2022-09-11T10:07:00.094Z,49.00
2022-09-11T10:13:18.746Z,49.20
2022-09-11T10:18:55.045Z,48.80
2022-09-11T10:24:21.456Z,48.50
2022-09-11T10:29:26.713Z,50.30
2022-09-11T10:34:40.640Z,52.40
2022-09-11T10:39:46.605Z,50.20
2022-09-11T10:44:51.368Z,50.60
2022-09-11T10:50:21.378Z,50.20
2022-09-11T10:55:29.955Z,47.30
2022-09-11T11:00:33.461Z,47.40
2022-09-11T11:05:55.521Z,46.20
2022-09-11T11:11:15.914Z,44.60
2022-09-11T11:16:44.768Z,43.80
2022-09-11T11:22:13.746Z,42.90
2022-09-11T11:27:48.484Z,42.60
2022-09-11T11:33:53.188Z,42.40
2022-09-11T11:39:35.725Z,40.40
2022-09-11T11:46:02.368Z,43.10
2022-09-11T11:51:27.927Z,44.00
2022-09-11T11:57:15.269Z,42.10
2022-09-11T12:02:28.982Z,40.00
2022-09-11T12:07:33.442Z,37.70
2022-09-11T12:12:58.832Z,39.80
2022-09-11T12:18:07.545Z,38.90
2022-09-11T12:23:34.340Z,40.40
2022-09-11T12:28:40.874Z,41.40
2022-09-11T12:33:55.084Z,41.90
2022-09-11T12:39:00.759Z,41.90
2022-09-11T12:44:06.237Z,42.90
2022-09-11T12:49:22.184Z,43.00
2022-09-11T12:54:30.139Z,43.70
2022-09-11T12:59:36.978Z,43.10
2022-09-11T13:04:43.680Z,42.70
2022-09-11T13:09:49.279Z,42.60
2022-09-11T13:14:54.398Z,42.10
2022-09-11T13:20:18.531Z,42.00
2022-09-11T13:25:22.679Z,42.10
2022-09-11T13:30:27.632Z,42.50
2022-09-11T13:35:30.433Z,41.60
2022-09-11T13:40:42.242Z,42.70
2022-09-11T13:45:46.903Z,42.20
2022-09-11T13:50:51.014Z,42.40
2022-09-11T13:55:53.884Z,42.70
2022-09-11T14:01:10.898Z,42.80
2022-09-11T14:06:16.929Z,43.10
2022-09-11T14:11:26.663Z,44.60
2022-09-11T14:16:35.275Z,43.60
2022-09-11T14:21:40.773Z,43.80
2022-09-11T14:26:43.711Z,43.50
2022-09-11T14:31:49.208Z,43.50
2022-09-11T14:36:55.342Z,43.10
2022-09-11T14:41:58.424Z,43.10
2022-09-11T14:47:03.583Z,43.10
2022-09-11T14:52:17.337Z,43.20
2022-09-11T14:57:22.327Z,43.90
2022-09-11T15:02:28.119Z,44.40
2022-09-11T15:07:30.594Z,44.60
2022-09-11T15:12:33.270Z,44.70
2022-09-11T15:17:37.485Z,44.90
2022-09-11T15:22:40.030Z,44.90
2022-09-11T15:27:42.532Z,45.10
2022-09-11T15:32:46.772Z,45.50
2022-09-11T15:37:50.557Z,45.40
2022-09-11T15:42:58.311Z,45.70
2022-09-11T15:48:02.705Z,45.90
2022-09-11T15:53:05.239Z,46.10
2022-09-11T15:58:07.748Z,46.20
2022-09-11T16:03:11.704Z,46.50
2022-09-11T16:08:14.218Z,46.10
2022-09-11T16:13:17.699Z,46.30
2022-09-11T16:18:21.832Z,46.30
2022-09-11T16:23:24.861Z,46.50
2022-09-11T16:28:27.422Z,46.80
2022-09-11T16:33:32.145Z,46.70
2022-09-11T16:38:37.655Z,46.90
2022-09-11T16:43:41.360Z,47.40
2022-09-11T16:48:48.466Z,48.20
2022-09-11T16:53:54.517Z,48.80
2022-09-11T16:58:56.950Z,49.10
2022-09-11T17:04:01.120Z,49.40
2022-09-11T17:09:04.979Z,49.90
2022-09-11T17:14:07.521Z,49.80
2022-09-11T17:19:12.141Z,49.80
2022-09-11T17:24:14.573Z,50.20
2022-09-11T17:29:17.269Z,50.30
2022-09-11T17:34:21.254Z,50.60
2022-09-11T17:39:23.863Z,51.00
2022-09-11T17:44:26.334Z,51.50
2022-09-11T17:49:32.206Z,52.10
2022-09-11T17:54:39.808Z,52.70
2022-09-11T18:00:03.034Z,53.00
2022-09-11T18:05:13.229Z,53.40
2022-09-11T18:10:15.805Z,53.90
2022-09-11T18:15:18.451Z,54.00
2022-09-11T18:20:22.320Z,55.10
2022-09-11T18:25:24.715Z,56.30
2022-09-11T18:30:36.553Z,55.70
2022-09-11T18:35:40.804Z,57.00
2022-09-11T18:40:48.643Z,57.00
2022-09-11T18:45:56.407Z,57.50
2022-09-11T18:51:08.177Z,58.50
2022-09-11T18:56:14.478Z,59.10
2022-09-11T19:01:22.239Z,60.10
2022-09-11T19:06:31.113Z,60.40
2022-09-11T19:11:36.351Z,61.60
2022-09-11T19:16:42.418Z,60.20
2022-09-11T19:21:53.914Z,60.40
2022-09-11T19:26:56.401Z,61.90
2022-09-11T19:32:00.265Z,62.40
2022-09-11T19:37:10.622Z,61.40
2022-09-11T19:42:19.597Z,63.40
2022-09-11T19:47:23.379Z,62.60
2022-09-11T19:52:30.998Z,62.80
2022-09-11T19:57:38.790Z,63.00
2022-09-11T20:02:44.432Z,62.60
2022-09-11T20:07:50.126Z,62.70
2022-09-11T20:13:03.562Z,63.10
2022-09-11T20:18:27.087Z,63.30
2022-09-11T20:23:32.892Z,63.70
2022-09-11T20:28:35.694Z,63.90
2022-09-11T20:33:45.685Z,62.90
2022-09-11T20:38:51.896Z,63.40
2022-09-11T20:44:00.559Z,63.90
2022-09-11T20:49:18.508Z,64.10
2022-09-11T20:54:24.215Z,64.90
2022-09-11T20:59:26.832Z,64.50
2022-09-11T21:04:29.305Z,63.90
2022-09-11T21:09:33.544Z,64.10
2022-09-11T21:14:35.971Z,64.50
2022-09-11T21:19:38.508Z,64.30
2022-09-11T21:24:42.355Z,64.40
2022-09-11T21:29:44.808Z,64.70
2022-09-11T21:34:47.266Z,64.80
2022-09-11T21:39:51.391Z,65.30
2022-09-11T21:44:53.775Z,66.10
2022-09-11T21:49:56.147Z,66.00
2022-09-11T21:55:00.146Z,66.00
2022-09-11T22:00:03.514Z,66.30
2022-09-11T22:05:06.881Z,66.70
2022-09-11T22:10:11.167Z,66.90
2022-09-11T22:15:13.717Z,67.10
2022-09-11T22:20:16.359Z,66.80
2022-09-11T22:25:20.244Z,66.80
2022-09-11T22:30:24.188Z,66.90
2022-09-11T22:35:27.150Z,66.80
2022-09-11T22:40:31.213Z,66.70
2022-09-11T22:45:33.882Z,67.10
2022-09-11T22:50:36.352Z,66.80
2022-09-11T22:55:44.004Z,67.40
2022-09-11T23:00:46.822Z,68.10
2022-09-11T23:05:54.615Z,67.50
2022-09-11T23:11:02.784Z,67.40
2022-09-11T23:16:12.534Z,67.90
2022-09-11T23:21:15.398Z,67.80
2022-09-11T23:26:19.508Z,67.30
2022-09-11T23:31:23.946Z,67.70
2022-09-11T23:36:27.799Z,67.60
2022-09-11T23:41:31.793Z,68.00
2022-09-11T23:46:34.750Z,68.70
2022-09-11T23:51:37.181Z,68.90
2022-09-11T23:56:40.983Z,69.10
